createdAt,value
2018-01-25T00:01:12.358Z,100401.94
2018-01-25T00:03:47.775Z,100385.23
2018-01-25T00:06:22.450Z,100387.27
2018-01-25T00:08:57.388Z,100398.16
2018-01-25T00:11:32.871Z,100407.84
2018-01-25T00:14:08.029Z,100401.88
2018-01-25T00:16:43.090Z,100421.48
2018-01-25T00:19:17.886Z,100424.92
2018-01-25T00:21:52.978Z,100423.38
2018-01-25T00:24:27.991Z,100459.30
2018-01-25T00:27:02.970Z,100455.67
2018-01-25T00:29:37.924Z,100458.28
2018-01-25T00:32:12.603Z,100481.90
2018-01-25T00:34:48.049Z,100484.22
2018-01-25T00:37:23.206Z,100474.82
2018-01-25T00:39:58.287Z,100479.15
2018-01-25T00:42:32.837Z,100487.48
2018-01-25T00:45:08.158Z,100493.75
2018-01-25T00:47:43.283Z,100502.64
2018-01-25T00:50:18.247Z,100505.16
2018-01-25T00:52:53.358Z,100496.70
2018-01-25T00:55:28.463Z,100498.08
2018-01-25T00:58:03.238Z,100501.91
2018-01-25T01:00:38.102Z,100511.58
2018-01-25T01:03:13.146Z,100520.61
2018-01-25T01:05:48.430Z,100511.36
2018-01-25T01:08:23.294Z,100505.66
2018-01-25T01:10:58.118Z,100508.74
2018-01-25T01:13:33.290Z,100512.72
2018-01-25T01:16:08.408Z,100521.92
2018-01-25T01:18:43.655Z,100510.92
2018-01-25T01:21:18.754Z,100523.44
2018-01-25T01:23:54.222Z,100516.78
2018-01-25T01:26:29.316Z,100509.13
2018-01-25T01:29:04.616Z,100517.56
2018-01-25T01:31:39.299Z,100521.23
2018-01-25T01:34:14.358Z,100527.76
2018-01-25T01:36:49.441Z,100531.23
2018-01-25T01:39:24.183Z,100536.55
2018-01-25T01:41:59.366Z,100541.08
2018-01-25T01:44:34.367Z,100546.77
2018-01-25T01:47:10.450Z,100555.76
2018-01-25T01:49:45.990Z,100557.55
2018-01-25T01:52:20.589Z,100548.55
2018-01-25T01:54:55.453Z,100554.92
2018-01-25T01:57:30.773Z,100558.63
2018-01-25T02:00:06.277Z,100556.27
2018-01-25T02:02:41.226Z,100548.95
2018-01-25T02:05:16.410Z,100561.91
2018-01-25T02:07:51.326Z,100553.23
2018-01-25T02:10:27.264Z,100562.45
2018-01-25T02:13:02.248Z,100558.33
2018-01-25T02:15:37.323Z,100560.61
2018-01-25T02:18:12.628Z,100559.95
2018-01-25T02:20:47.398Z,100568.73
2018-01-25T02:23:21.911Z,100555.23
2018-01-25T02:25:57.362Z,100551.67
2018-01-25T02:28:32.373Z,100560.98
2018-01-25T02:31:07.438Z,100573.76
2018-01-25T02:33:42.422Z,100583.08
2018-01-25T02:36:17.595Z,100592.10
2018-01-25T02:38:53.092Z,100590.88
2018-01-25T02:41:28.361Z,100595.88
2018-01-25T02:44:03.533Z,100588.88
2018-01-25T02:46:38.514Z,100581.19
2018-01-25T02:49:13.446Z,100589.06
2018-01-25T02:51:48.693Z,100581.42
2018-01-25T02:54:23.654Z,100586.29
2018-01-25T02:56:58.428Z,100591.20
2018-01-25T02:59:33.314Z,100598.06
2018-01-25T03:02:08.468Z,100605.06
2018-01-25T03:04:43.382Z,100616.21
2018-01-25T03:07:18.572Z,100627.48
2018-01-25T03:09:53.335Z,100631.97
2018-01-25T03:12:28.582Z,100644.14
2018-01-25T03:15:03.316Z,100649.64
2018-01-25T03:17:37.991Z,100650.54
2018-01-25T03:20:12.695Z,100650.10
2018-01-25T03:22:47.660Z,100645.56
2018-01-25T03:25:22.694Z,100655.55
2018-01-25T03:27:57.874Z,100647.73
2018-01-25T03:30:33.368Z,100648.14
2018-01-25T03:33:08.387Z,100643.86
2018-01-25T03:35:43.372Z,100650.11
2018-01-25T03:38:18.355Z,100656.34
2018-01-25T03:40:53.014Z,100653.77
2018-01-25T03:43:28.386Z,100658.27
2018-01-25T03:46:03.214Z,100656.61
2018-01-25T03:48:38.392Z,100668.86
2018-01-25T03:51:13.532Z,100669.88
2018-01-25T03:53:48.499Z,100673.67
2018-01-25T03:56:23.859Z,100682.75
2018-01-25T03:58:58.590Z,100685.94
2018-01-25T04:01:33.575Z,100683.89
2018-01-25T04:04:08.585Z,100691.63
2018-01-25T04:06:43.326Z,100689.38
2018-01-25T04:09:18.445Z,100681.33
2018-01-25T04:11:53.566Z,100689.91
2018-01-25T04:14:28.730Z,100693.61
2018-01-25T04:17:03.658Z,100691.24
2018-01-25T04:19:38.455Z,100687.54
2018-01-25T04:22:13.476Z,100694.31
2018-01-25T04:24:48.290Z,100695.27
2018-01-25T04:27:23.164Z,100678.70
2018-01-25T04:29:58.068Z,100669.45
2018-01-25T04:32:32.602Z,100677.39
2018-01-25T04:35:07.766Z,100677.25
2018-01-25T04:37:42.698Z,100694.17
2018-01-25T04:40:17.966Z,100706.39
2018-01-25T04:42:52.611Z,100699.48
2018-01-25T04:45:27.581Z,100693.09
2018-01-25T04:48:02.306Z,100699.86
2018-01-25T04:50:36.465Z,100696.94
2018-01-25T04:53:10.987Z,100704.53
2018-01-25T04:55:45.956Z,100705.55
2018-01-25T04:58:21.107Z,100705.05
2018-01-25T05:00:55.662Z,100701.93
2018-01-25T05:03:30.672Z,100698.78
2018-01-25T05:06:05.893Z,100709.72
2018-01-25T05:08:41.127Z,100700.82
2018-01-25T05:11:16.399Z,100704.29
2018-01-25T05:13:51.292Z,100703.70
2018-01-25T05:16:26.046Z,100709.20
2018-01-25T05:19:00.999Z,100709.08
2018-01-25T05:21:35.877Z,100722.50
2018-01-25T05:24:10.931Z,100721.59
2018-01-25T05:26:45.620Z,100719.87
2018-01-25T05:29:20.936Z,100707.15
2018-01-25T05:31:55.190Z,100708.17
2018-01-25T05:34:30.743Z,100716.61
2018-01-25T05:37:05.667Z,100711.70
2018-01-25T05:39:40.847Z,100712.46
2018-01-25T05:42:15.935Z,100726.00
2018-01-25T05:44:50.900Z,100720.69
2018-01-25T05:47:26.152Z,100723.41
2018-01-25T05:50:00.847Z,100732.07
2018-01-25T05:52:35.413Z,100741.66
2018-01-25T05:55:10.805Z,100747.86
2018-01-25T05:57:45.298Z,100740.06
2018-01-25T06:00:20.294Z,100748.27
2018-01-25T06:02:55.431Z,100746.55
2018-01-25T06:05:30.237Z,100758.63
2018-01-25T06:08:05.011Z,100755.94
2018-01-25T06:10:40.328Z,100758.80
2018-01-25T06:13:15.082Z,100758.53
2018-01-25T06:15:49.854Z,100761.73
2018-01-25T06:18:25.154Z,100759.69
2018-01-25T06:20:59.927Z,100746.58
2018-01-25T06:23:35.111Z,100774.45
2018-01-25T06:26:11.258Z,100768.44
2018-01-25T06:28:46.424Z,100772.02
2018-01-25T06:31:20.712Z,100771.13
2018-01-25T06:33:55.903Z,100773.03
2018-01-25T06:36:31.082Z,100763.20
2018-01-25T06:39:06.027Z,100768.83
2018-01-25T06:41:40.579Z,100762.23
2018-01-25T06:44:16.132Z,100754.91
2018-01-25T06:46:51.390Z,100768.33
2018-01-25T06:49:26.287Z,100765.30
2018-01-25T06:52:01.054Z,100766.58
2018-01-25T06:54:36.284Z,100769.27
2018-01-25T06:57:11.483Z,100776.37
2018-01-25T06:59:46.559Z,100779.81
2018-01-25T07:02:21.516Z,100776.93
2018-01-25T07:04:56.981Z,100775.28
2018-01-25T07:07:32.054Z,100778.59
2018-01-25T07:10:06.974Z,100775.97
2018-01-25T07:12:42.054Z,100780.76
2018-01-25T07:15:17.262Z,100781.07
2018-01-25T07:17:52.301Z,100778.80
2018-01-25T07:20:27.445Z,100772.84
2018-01-25T07:23:03.006Z,100782.61
2018-01-25T07:25:37.386Z,100784.16
2018-01-25T07:28:12.383Z,100779.12
2018-01-25T07:30:47.250Z,100786.96
2018-01-25T07:33:22.700Z,100779.05
2018-01-25T07:35:57.464Z,100769.89
2018-01-25T07:38:32.591Z,100790.09
2018-01-25T07:41:07.624Z,100787.54
2018-01-25T07:43:43.068Z,100795.70
2018-01-25T07:46:18.158Z,100791.68
2018-01-25T07:48:52.904Z,100793.55
2018-01-25T07:51:27.966Z,100798.84
2018-01-25T07:54:02.860Z,100789.48
2018-01-25T07:56:38.148Z,100799.31
2018-01-25T07:59:13.151Z,100794.00
2018-01-25T08:01:48.210Z,100790.55
2018-01-25T08:04:23.425Z,100790.53
2018-01-25T08:06:58.615Z,100795.65
2018-01-25T08:09:32.993Z,100794.36
2018-01-25T08:12:08.336Z,100793.45
2018-01-25T08:14:43.421Z,100805.80
2018-01-25T08:17:19.218Z,100807.72
2018-01-25T08:19:55.318Z,100804.31
2018-01-25T08:22:30.375Z,100805.02
2018-01-25T08:25:05.135Z,100808.72
2018-01-25T08:27:40.201Z,100810.58
2018-01-25T08:30:15.510Z,100806.07
2018-01-25T08:32:50.978Z,100808.56
2018-01-25T08:35:26.362Z,100794.91
2018-01-25T08:38:01.240Z,100800.41
2018-01-25T08:40:36.306Z,100800.63
2018-01-25T08:43:11.706Z,100809.64
2018-01-25T08:45:46.216Z,100802.92
2018-01-25T08:48:21.299Z,100810.58
2018-01-25T08:50:56.518Z,100809.44
2018-01-25T08:53:31.582Z,100807.58
2018-01-25T08:56:06.651Z,100808.03
2018-01-25T08:58:41.558Z,100814.30
2018-01-25T09:01:16.422Z,100811.87
2018-01-25T09:03:51.396Z,100803.27
2018-01-25T09:06:27.043Z,100804.58
2018-01-25T09:09:01.754Z,100810.16
2018-01-25T09:11:37.364Z,100808.70
2018-01-25T09:14:11.838Z,100807.03
2018-01-25T09:16:47.176Z,100813.27
2018-01-25T09:19:21.648Z,100822.19
2018-01-25T09:21:56.774Z,100826.27
2018-01-25T09:24:31.856Z,100822.63
2018-01-25T09:27:07.412Z,100807.03
2018-01-25T09:29:42.420Z,100803.33
2018-01-25T09:32:17.654Z,100807.03
2018-01-25T09:35:02.199Z,100814.34
2018-01-25T09:37:37.366Z,100821.81
2018-01-25T09:40:12.781Z,100821.67
2018-01-25T09:42:47.756Z,100822.69
2018-01-25T09:45:22.903Z,100832.09
2018-01-25T09:47:57.266Z,100825.32
2018-01-25T09:50:32.734Z,100833.78
2018-01-25T09:53:07.858Z,100823.73
2018-01-25T09:55:42.434Z,100799.68
2018-01-25T09:58:17.632Z,100823.92
2018-01-25T10:00:52.438Z,100829.44
2018-01-25T10:03:27.722Z,100824.30
2018-01-25T10:06:02.822Z,100823.86
2018-01-25T10:08:37.690Z,100835.77
2018-01-25T10:11:12.749Z,100835.36
2018-01-25T10:13:47.920Z,100828.00
2018-01-25T10:16:23.382Z,100836.59
2018-01-25T10:18:58.409Z,100833.76
2018-01-25T10:21:33.568Z,100838.77
2018-01-25T10:24:08.680Z,100841.38
2018-01-25T10:26:43.959Z,100839.80
2018-01-25T10:29:18.795Z,100835.41
2018-01-25T10:31:53.887Z,100844.16
2018-01-25T10:34:29.478Z,100848.56
2018-01-25T10:37:04.539Z,100857.59
2018-01-25T10:39:39.538Z,100849.52
2018-01-25T10:42:15.134Z,100842.55
2018-01-25T10:44:49.934Z,100848.73
2018-01-25T10:47:25.063Z,100849.38
2018-01-25T10:50:00.428Z,100848.13
2018-01-25T10:52:35.580Z,100851.22
2018-01-25T10:55:11.865Z,100846.28
2018-01-25T10:57:47.032Z,100844.47
2018-01-25T11:00:22.322Z,100839.94
2018-01-25T11:02:57.510Z,100837.75
2018-01-25T11:05:31.950Z,100839.81
2018-01-25T11:08:07.618Z,100832.04
2018-01-25T11:10:42.661Z,100831.60
2018-01-25T11:13:17.898Z,100827.50
2018-01-25T11:15:52.836Z,100820.78
2018-01-25T11:18:27.980Z,100821.63
2018-01-25T11:21:02.836Z,100825.34
2018-01-25T11:23:37.846Z,100823.66
2018-01-25T11:26:13.268Z,100828.27
2018-01-25T11:28:47.985Z,100826.66
2018-01-25T11:31:23.182Z,100825.33
2018-01-25T11:33:57.588Z,100830.32
2018-01-25T11:36:32.535Z,100827.94
2018-01-25T11:39:07.717Z,100830.79
2018-01-25T11:41:42.754Z,100828.80
2018-01-25T11:44:17.903Z,100824.58
2018-01-25T11:46:52.760Z,100827.33
2018-01-25T11:49:27.942Z,100823.42
2018-01-25T11:52:03.015Z,100823.25
2018-01-25T11:54:37.939Z,100814.06
2018-01-25T11:57:13.017Z,100813.63
2018-01-25T11:59:47.905Z,100813.31
2018-01-25T12:02:23.322Z,100811.44
2018-01-25T12:04:58.019Z,100802.25
2018-01-25T12:07:33.442Z,100810.77
2018-01-25T12:10:08.323Z,100805.55
2018-01-25T12:12:43.222Z,100801.05
2018-01-25T12:15:18.032Z,100794.36
2018-01-25T12:17:52.907Z,100791.13
2018-01-25T12:20:27.390Z,100785.28
2018-01-25T12:23:02.880Z,100786.20
2018-01-25T12:25:38.054Z,100798.36
2018-01-25T12:28:13.201Z,100800.84
2018-01-25T12:30:48.149Z,100796.34
2018-01-25T12:33:23.310Z,100796.27
2018-01-25T12:35:58.864Z,100781.44
2018-01-25T12:38:34.132Z,100791.30
2018-01-25T12:41:09.279Z,100787.79
2018-01-25T12:43:44.234Z,100783.91
2018-01-25T12:46:18.926Z,100777.18
2018-01-25T12:48:53.989Z,100768.29
2018-01-25T12:51:29.014Z,100768.80
2018-01-25T12:54:04.046Z,100770.64
2018-01-25T12:56:39.319Z,100776.40
2018-01-25T12:59:14.873Z,100776.84
2018-01-25T13:01:49.934Z,100774.96
2018-01-25T13:04:25.155Z,100775.53
2018-01-25T13:07:00.266Z,100782.95
2018-01-25T13:09:35.821Z,100776.84
2018-01-25T13:12:10.410Z,100783.38
2018-01-25T13:14:45.743Z,100766.67
2018-01-25T13:17:20.894Z,100772.87
2018-01-25T13:19:55.971Z,100766.39
2018-01-25T13:22:31.020Z,100764.36
2018-01-25T13:25:05.394Z,100758.25
2018-01-25T13:27:40.872Z,100765.27
2018-01-25T13:30:15.849Z,100765.98
2018-01-25T13:32:56.531Z,100766.70
2018-01-25T13:35:32.012Z,100768.02
2018-01-25T13:38:07.319Z,100763.08
2018-01-25T13:40:42.262Z,100760.76
2018-01-25T13:43:17.331Z,100755.16
2018-01-25T13:45:52.230Z,100758.97
2018-01-25T13:48:27.418Z,100759.22
2018-01-25T13:51:02.664Z,100756.59
2018-01-25T13:53:38.239Z,100750.38
2018-01-25T13:56:13.938Z,100746.36
2018-01-25T13:58:48.997Z,100743.98
2018-01-25T14:01:24.005Z,100739.33
2018-01-25T14:03:59.150Z,100737.70
2018-01-25T14:06:34.322Z,100734.31
2018-01-25T14:09:09.439Z,100734.81
2018-01-25T14:11:44.571Z,100732.91
2018-01-25T14:14:19.978Z,100731.97
2018-01-25T14:16:54.868Z,100729.09
2018-01-25T14:19:30.148Z,100726.05
2018-01-25T14:22:04.570Z,100724.71
2018-01-25T14:24:39.448Z,100721.71
2018-01-25T14:27:20.398Z,100726.37
2018-01-25T14:29:55.113Z,100720.98
2018-01-25T14:32:30.186Z,100723.31
2018-01-25T14:35:05.068Z,100726.13
2018-01-25T14:37:40.027Z,100720.33
2018-01-25T14:40:15.062Z,100719.66
2018-01-25T14:42:50.214Z,100726.85
2018-01-25T14:45:25.259Z,100725.22
2018-01-25T14:48:00.329Z,100717.45
2018-01-25T14:50:35.635Z,100716.11
2018-01-25T14:53:10.426Z,100717.95
2018-01-25T14:55:45.388Z,100723.33
2018-01-25T14:58:20.475Z,100721.89
2018-01-25T15:00:55.723Z,100713.06
2018-01-25T15:03:30.490Z,100715.75
2018-01-25T15:06:05.611Z,100710.79
2018-01-25T15:08:40.474Z,100719.99
2018-01-25T15:11:15.518Z,100716.59
2018-01-25T15:13:50.617Z,100722.08
2018-01-25T15:16:26.426Z,100711.99
2018-01-25T15:19:01.126Z,100707.95
2018-01-25T15:21:36.137Z,100715.61
2018-01-25T15:24:12.522Z,100724.08
2018-01-25T15:26:51.442Z,100720.12
2018-01-25T15:29:26.699Z,100722.38
2018-01-25T15:32:02.255Z,100715.69
2018-01-25T15:34:37.134Z,100716.09
2018-01-25T15:37:12.590Z,100709.83
2018-01-25T15:39:47.050Z,100708.02
2018-01-25T15:42:22.373Z,100707.81
2018-01-25T15:44:57.290Z,100709.83
2018-01-25T15:47:32.290Z,100721.30
2018-01-25T15:50:07.410Z,100732.94
2018-01-25T15:52:42.433Z,100746.17
2018-01-25T15:55:17.594Z,100746.30
2018-01-25T15:57:52.163Z,100739.42
2018-01-25T16:00:26.486Z,100742.36
2018-01-25T16:03:01.647Z,100741.98
2018-01-25T16:05:36.630Z,100735.04
2018-01-25T16:08:12.675Z,100743.73
2018-01-25T16:10:47.310Z,100735.76
2018-01-25T16:13:22.544Z,100732.37
2018-01-25T16:15:57.757Z,100728.87
2018-01-25T16:18:32.380Z,100720.02
2018-01-25T16:21:07.405Z,100723.48
2018-01-25T16:23:42.561Z,100719.91
2018-01-25T16:26:17.387Z,100712.44
2018-01-25T16:28:52.317Z,100704.75
2018-01-25T16:31:27.671Z,100711.28
2018-01-25T16:34:02.802Z,100717.15
2018-01-25T16:36:37.485Z,100722.63
2018-01-25T16:39:12.602Z,100729.22
2018-01-25T16:41:47.494Z,100738.77
2018-01-25T16:44:22.615Z,100750.16
2018-01-25T16:46:57.672Z,100757.44
2018-01-25T16:49:32.906Z,100751.90
2018-01-25T16:52:08.446Z,100754.47
2018-01-25T16:54:43.538Z,100753.16
2018-01-25T16:57:18.399Z,100757.19
2018-01-25T16:59:53.469Z,100759.97
2018-01-25T17:02:28.771Z,100747.55
2018-01-25T17:05:03.538Z,100754.47
2018-01-25T17:07:38.630Z,100755.66
2018-01-25T17:10:14.178Z,100752.02
2018-01-25T17:12:48.903Z,100751.48
2018-01-25T17:15:24.448Z,100745.00
2018-01-25T17:17:59.602Z,100752.58
2018-01-25T17:20:34.576Z,100759.39
2018-01-25T17:23:09.679Z,100762.28
2018-01-25T17:25:44.415Z,100758.91
2018-01-25T17:28:19.867Z,100760.11
2018-01-25T17:30:54.618Z,100760.91
2018-01-25T17:33:29.018Z,100743.06
2018-01-25T17:36:04.079Z,100749.43
2018-01-25T17:38:39.580Z,100753.06
2018-01-25T17:41:14.772Z,100758.58
2018-01-25T17:43:49.483Z,100760.20
2018-01-25T17:46:24.700Z,100760.20
2018-01-25T17:49:00.027Z,100757.76
2018-01-25T17:51:34.775Z,100759.51
2018-01-25T17:54:11.004Z,100771.60
2018-01-25T17:56:45.595Z,100771.98
2018-01-25T17:59:21.358Z,100779.31
2018-01-25T18:01:56.063Z,100771.39
2018-01-25T18:04:30.860Z,100769.93
2018-01-25T18:07:05.938Z,100768.33
2018-01-25T18:09:40.757Z,100771.34
2018-01-25T18:12:16.006Z,100781.06
2018-01-25T18:14:51.014Z,100776.45
2018-01-25T18:17:25.986Z,100781.36
2018-01-25T18:20:01.615Z,100778.70
2018-01-25T18:22:36.554Z,100789.19
2018-01-25T18:25:13.033Z,100781.38
2018-01-25T18:27:48.223Z,100776.64
2018-01-25T18:30:23.568Z,100778.63
2018-01-25T18:32:58.815Z,100776.52
2018-01-25T18:35:33.796Z,100777.38
2018-01-25T18:38:08.770Z,100781.14
2018-01-25T18:40:43.873Z,100784.38
2018-01-25T18:43:18.946Z,100779.16
2018-01-25T18:45:53.736Z,100778.19
2018-01-25T18:48:28.980Z,100780.56
2018-01-25T18:51:03.627Z,100787.98
2018-01-25T18:53:38.309Z,100788.88
2018-01-25T18:58:34.824Z,100789.52
2018-01-25T19:01:10.027Z,100785.11
2018-01-25T19:03:45.278Z,100786.42
2018-01-25T19:06:20.798Z,100786.45
2018-01-25T19:08:55.984Z,100781.20
2018-01-25T19:11:30.701Z,100780.48
2018-01-25T19:14:05.858Z,100781.42
2018-01-25T19:16:40.805Z,100783.02
2018-01-25T19:19:16.050Z,100788.70
2018-01-25T19:21:50.903Z,100789.48
2018-01-25T19:24:26.135Z,100793.89
2018-01-25T19:27:00.848Z,100792.41
2018-01-25T19:29:35.845Z,100799.83
2018-01-25T19:32:11.118Z,100802.51
2018-01-25T19:34:45.878Z,100792.55
2018-01-25T19:37:20.932Z,100790.67
2018-01-25T19:39:55.787Z,100785.36
2018-01-25T19:42:30.411Z,100789.77
2018-01-25T19:45:05.871Z,100787.09
2018-01-25T19:47:40.326Z,100786.45
2018-01-25T19:50:15.978Z,100783.80
2018-01-25T19:52:51.106Z,100787.89
2018-01-25T19:55:26.155Z,100785.52
2018-01-25T19:58:00.976Z,100793.75
2018-01-25T20:00:36.013Z,100790.13
2018-01-25T20:03:10.750Z,100778.22
2018-01-25T20:05:45.969Z,100776.98
2018-01-25T20:08:21.153Z,100788.63
2018-01-25T20:10:56.043Z,100795.97
2018-01-25T20:13:30.890Z,100789.77
2018-01-25T20:16:06.094Z,100795.79
2018-01-25T20:18:41.016Z,100791.95
2018-01-25T20:21:21.432Z,100780.41
2018-01-25T20:23:56.151Z,100784.87
2018-01-25T20:26:31.202Z,100786.33
2018-01-25T20:29:06.210Z,100782.19
2018-01-25T20:31:41.400Z,100775.55
2018-01-25T20:34:16.569Z,100780.74
2018-01-25T20:36:52.034Z,100792.42
2018-01-25T20:39:26.550Z,100784.45
2018-01-25T20:42:01.550Z,100789.79
2018-01-25T20:44:36.483Z,100791.45
2018-01-25T20:47:11.539Z,100799.50
2018-01-25T21:32:13.604Z,100814.62
2018-01-25T21:34:48.645Z,100818.02
2018-01-25T21:37:23.373Z,100823.42
2018-01-25T21:39:58.199Z,100834.28
2018-01-25T21:42:33.138Z,100836.28
2018-01-25T21:45:08.394Z,100831.09
2018-01-25T21:47:43.386Z,100834.57
2018-01-25T21:50:18.531Z,100835.59
2018-01-25T21:52:53.323Z,100837.26
2018-01-25T21:55:28.405Z,100837.33
2018-01-25T21:58:03.220Z,100824.55
2018-01-25T22:00:38.205Z,100824.48
2018-01-25T22:03:13.586Z,100828.05
2018-01-25T22:05:48.367Z,100834.48
2018-01-25T22:08:23.344Z,100844.11
2018-01-25T22:10:58.221Z,100845.86
2018-01-25T22:13:33.311Z,100834.38
2018-01-25T22:16:08.306Z,100848.78
2018-01-25T22:18:43.361Z,100859.20
2018-01-25T22:21:18.430Z,100858.00
2018-01-25T22:23:53.735Z,100860.81
2018-01-25T22:26:29.290Z,100865.73
2018-01-25T22:29:04.252Z,100855.17
2018-01-25T22:31:39.292Z,100858.05
2018-01-25T22:34:14.450Z,100853.77
2018-01-25T22:36:49.526Z,100846.56
2018-01-25T22:39:24.587Z,100849.85
2018-01-25T22:41:59.677Z,100855.28
2018-01-25T22:44:35.500Z,100856.12
2018-01-25T22:47:10.256Z,100856.56
2018-01-25T22:49:45.518Z,100857.61
2018-01-25T22:52:20.404Z,100863.14
2018-01-25T22:54:55.378Z,100857.95
2018-01-25T22:57:30.596Z,100851.49
2018-01-25T23:00:05.046Z,100848.80
2018-01-25T23:02:40.486Z,100857.64
2018-01-25T23:05:15.197Z,100864.08
2018-01-25T23:07:50.386Z,100860.87
2018-01-25T23:10:24.996Z,100856.67
2018-01-25T23:13:00.074Z,100867.20
2018-01-25T23:15:35.419Z,100864.64
2018-01-25T23:18:10.032Z,100871.00
2018-01-25T23:20:45.569Z,100875.55
2018-01-25T23:23:20.638Z,100870.06
2018-01-25T23:25:55.714Z,100878.17
2018-01-25T23:28:30.735Z,100881.19
2018-01-25T23:31:05.614Z,100877.48
2018-01-25T23:33:40.491Z,100880.03
2018-01-25T23:36:15.957Z,100882.58
2018-01-25T23:38:51.347Z,100886.17
2018-01-25T23:41:25.907Z,100877.22
2018-01-25T23:44:01.042Z,100887.56
2018-01-25T23:46:36.455Z,100877.33
2018-01-25T23:49:11.538Z,100881.61
2018-01-25T23:51:46.653Z,100876.48
2018-01-25T23:54:22.131Z,100887.66
2018-01-25T23:56:56.795Z,100887.73
2018-01-25T23:59:31.676Z,100881.03
